Time;durP1;ratioP1;P1;durP2;ratioP2;P2;SDS_P1;SDS_P2;PMS_P1;PMS_P2;Temp;Humidity;BMP_temperature;BMP_pressure;BME280_temperature;BME280_humidity;BME280_pressure;Samples;Min_cycle;Max_cycle;Signal;HPM_P1;HPM_P2
2021/12/31 00:01:24;;;;;;;15.23;14.33;;;10.50;99.90;;;;;;5044654;28;20203;-76
2021/12/31 00:03:52;;;;;;;16.73;15.73;;;10.50;99.90;;;;;;5043645;28;20660;-75
2021/12/31 00:06:19;;;;;;;14.70;13.60;;;10.50;99.90;;;;;;5041462;28;20218;-75
2021/12/31 00:08:45;;;;;;;13.73;12.77;;;10.50;99.90;;;;;;5057325;28;20585;-76
2021/12/31 00:11:12;;;;;;;16.00;15.10;;;10.50;99.90;;;;;;5044294;28;20746;-75
2021/12/31 00:13:39;;;;;;;14.27;13.37;;;10.60;99.90;;;;;;5055497;28;20195;-76
2021/12/31 00:16:07;;;;;;;14.10;13.30;;;10.60;99.90;;;;;;5059001;28;20203;-76
2021/12/31 00:18:34;;;;;;;14.53;13.50;;;10.50;99.90;;;;;;5037138;28;20218;-76
2021/12/31 00:21:02;;;;;;;13.90;13.10;;;10.50;99.90;;;;;;5052898;28;20195;-76
2021/12/31 00:23:29;;;;;;;14.77;13.77;;;10.50;99.90;;;;;;5054304;28;20202;-76
2021/12/31 00:25:56;;;;;;;14.13;13.33;;;10.50;99.90;;;;;;5045734;28;20187;-76
2021/12/31 00:28:23;;;;;;;14.00;13.20;;;10.50;99.90;;;;;;5057229;28;20737;-76
2021/12/31 00:30:53;;;;;;;13.50;12.70;;;10.40;99.90;;;;;;5056321;28;20222;-76
2021/12/31 00:33:23;;;;;;;14.07;13.27;;;10.40;99.90;;;;;;5043910;28;20679;-75
2021/12/31 00:35:50;;;;;;;14.10;13.30;;;10.40;99.90;;;;;;5042947;28;20202;-76
2021/12/31 00:38:17;;;;;;;13.40;12.67;;;10.30;99.90;;;;;;5049224;28;20215;-76
2021/12/31 00:40:44;;;;;;;14.20;13.40;;;10.20;99.90;;;;;;5043787;28;20198;-76
2021/12/31 00:43:12;;;;;;;14.10;13.30;;;10.10;99.90;;;;;;5052700;28;20203;-75
2021/12/31 00:45:40;;;;;;;13.90;13.10;;;10.10;99.90;;;;;;5039879;28;20242;-75
2021/12/31 00:48:09;;;;;;;14.33;13.53;;;10.00;99.90;;;;;;5061451;28;20222;-76
2021/12/31 00:50:38;;;;;;;13.93;13.13;;;9.90;99.90;;;;;;5055443;28;20219;-76
2021/12/31 00:53:06;;;;;;;14.30;13.50;;;9.80;99.90;;;;;;5044745;28;20207;-76
2021/12/31 00:55:33;;;;;;;14.33;13.53;;;9.70;99.90;;;;;;5059147;28;20206;-76
2021/12/31 00:58:00;;;;;;;14.20;13.30;;;9.70;99.90;;;;;;5059109;28;20191;-75
2021/12/31 01:00:27;;;;;;;13.63;12.83;;;9.60;99.90;;;;;;5038907;28;20191;-76
2021/12/31 01:02:54;;;;;;;14.20;13.30;;;9.50;99.90;;;;;;5043167;28;20636;-76
2021/12/31 01:05:21;;;;;;;13.90;13.10;;;9.40;99.90;;;;;;5064268;28;20206;-76
2021/12/31 01:07:49;;;;;;;13.90;13.10;;;9.40;99.90;;;;;;5059870;28;20568;-76
2021/12/31 01:10:18;;;;;;;13.87;13.07;;;9.40;99.90;;;;;;5054650;28;20560;-76
2021/12/31 01:12:45;;;;;;;14.13;13.23;;;9.40;99.90;;;;;;5043423;28;20195;-76
2021/12/31 01:15:19;;;;;;;14.73;13.93;;;9.30;99.90;;;;;;5067170;28;20203;-75
2021/12/31 01:20:34;;;;;;;15.57;14.67;;;9.20;99.90;;;;;;5019242;28;20195;-76
2021/12/31 01:23:02;;;;;;;14.97;14.10;;;9.20;99.90;;;;;;5051947;28;20202;-75
2021/12/31 01:25:29;;;;;;;15.00;14.10;;;9.20;99.90;;;;;;5054637;28;20555;-76
2021/12/31 01:27:56;;;;;;;15.30;14.40;;;9.20;99.90;;;;;;5048229;28;20201;-76
2021/12/31 01:30:23;;;;;;;13.87;13.07;;;9.20;99.90;;;;;;5041883;28;20222;-76
2021/12/31 01:32:50;;;;;;;15.20;14.30;;;9.20;99.90;;;;;;5059158;28;20191;-76
2021/12/31 01:35:17;;;;;;;14.70;13.90;;;9.10;99.90;;;;;;5062000;28;20199;-76
2021/12/31 01:37:44;;;;;;;16.50;15.60;;;9.10;99.90;;;;;;5039528;28;20588;-75
2021/12/31 01:40:13;;;;;;;16.13;15.13;;;9.10;99.90;;;;;;5062014;28;20231;-76
2021/12/31 01:42:40;;;;;;;15.53;14.63;;;9.10;99.90;;;;;;5062162;28;20195;-76
2021/12/31 01:45:12;;;;;;;16.00;15.10;;;9.00;99.90;;;;;;5062043;28;20204;-76
2021/12/31 01:47:56;;;;;;;15.90;14.93;;;9.00;99.90;;;;;;5058630;28;20220;-75
2021/12/31 01:50:24;;;;;;;15.93;15.03;;;8.90;99.90;;;;;;5062263;28;20222;-76
2021/12/31 01:52:51;;;;;;;15.97;15.07;;;8.90;99.90;;;;;;5055517;28;20198;-75
2021/12/31 01:55:21;;;;;;;16.30;15.40;;;8.80;99.90;;;;;;5054996;28;20191;-75
2021/12/31 01:57:48;;;;;;;16.90;15.90;;;8.70;99.90;;;;;;5061527;28;20194;-76
2021/12/31 02:00:16;;;;;;;16.20;15.20;;;8.60;99.90;;;;;;5051862;28;20589;-76
2021/12/31 02:02:45;;;;;;;17.47;16.47;;;8.60;99.90;;;;;;5056032;28;20210;-76
2021/12/31 02:05:12;;;;;;;18.50;17.27;;;8.60;99.90;;;;;;5061577;28;20692;-76
2021/12/31 02:07:40;;;;;;;17.87;16.77;;;8.50;99.90;;;;;;5043082;28;20205;-75
2021/12/31 02:10:09;;;;;;;17.37;16.27;;;8.50;99.90;;;;;;5056556;28;20604;-76
2021/12/31 02:12:41;;;;;;;17.07;16.07;;;8.40;99.90;;;;;;5059623;28;20671;-75
2021/12/31 02:15:09;;;;;;;17.13;16.03;;;8.40;99.90;;;;;;5045572;28;20226;-76
2021/12/31 02:17:36;;;;;;;17.40;16.23;;;8.30;99.90;;;;;;5061231;28;20579;-75
2021/12/31 02:20:07;;;;;;;17.37;16.27;;;8.30;99.90;;;;;;5061127;28;20627;-75
2021/12/31 02:22:37;;;;;;;18.63;17.30;;;8.20;99.90;;;;;;5044672;28;20209;-75
2021/12/31 02:25:06;;;;;;;18.53;17.17;;;8.20;99.90;;;;;;5061733;28;20418;-75
2021/12/31 02:27:37;;;;;;;18.53;16.97;;;8.10;99.90;;;;;;5059580;28;20664;-75
2021/12/31 02:30:05;;;;;;;17.63;16.53;;;8.10;99.90;;;;;;5040559;28;20248;-75
2021/12/31 02:32:32;;;;;;;17.53;16.43;;;8.10;99.90;;;;;;5060650;28;20223;-76
2021/12/31 02:34:59;;;;;;;17.27;16.07;;;8.00;99.90;;;;;;5060925;28;20205;-76
2021/12/31 02:37:28;;;;;;;17.87;16.67;;;8.00;99.90;;;;;;5062354;28;20199;-75
2021/12/31 02:39:56;;;;;;;18.13;16.90;;;8.00;99.90;;;;;;5042365;28;20301;-76
2021/12/31 02:42:23;;;;;;;17.67;16.53;;;7.90;99.90;;;;;;5055906;28;20197;-75
2021/12/31 02:44:51;;;;;;;18.33;17.13;;;7.90;99.90;;;;;;5042803;28;20200;-75
2021/12/31 02:47:18;;;;;;;17.93;16.60;;;7.80;99.90;;;;;;5055670;28;20202;-75
2021/12/31 02:49:47;;;;;;;17.93;16.73;;;7.70;99.90;;;;;;5058279;28;20222;-75
2021/12/31 02:52:15;;;;;;;18.20;16.97;;;7.80;99.90;;;;;;5060653;28;20245;-76
2021/12/31 02:54:47;;;;;;;18.13;16.73;;;7.70;99.90;;;;;;5043228;28;20203;-75
2021/12/31 02:57:20;;;;;;;17.77;16.57;;;7.70;99.90;;;;;;5037850;28;20200;-75
2021/12/31 02:59:47;;;;;;;17.83;16.53;;;7.70;99.90;;;;;;5060516;28;20221;-75
2021/12/31 03:02:19;;;;;;;16.93;15.83;;;7.70;99.90;;;;;;5051040;28;20198;-76
2021/12/31 03:04:47;;;;;;;18.40;17.10;;;7.70;99.90;;;;;;5054908;28;20193;-76
2021/12/31 03:07:17;;;;;;;18.30;17.17;;;7.70;99.90;;;;;;5039594;28;20345;-75
2021/12/31 03:09:47;;;;;;;17.30;16.20;;;7.60;99.90;;;;;;5058115;28;20224;-75
2021/12/31 03:12:14;;;;;;;16.87;15.77;;;7.60;99.90;;;;;;5043328;28;20705;-75
2021/12/31 03:14:44;;;;;;;17.17;15.97;;;7.60;99.90;;;;;;5056891;28;20674;-75
2021/12/31 03:17:11;;;;;;;16.27;15.27;;;7.60;99.90;;;;;;5042847;28;20242;-75
2021/12/31 03:19:38;;;;;;;15.83;14.83;;;7.60;99.90;;;;;;5043792;28;20598;-75
2021/12/31 03:22:06;;;;;;;16.53;15.53;;;7.60;99.90;;;;;;5060307;28;20200;-75
2021/12/31 03:24:33;;;;;;;16.70;15.70;;;7.60;99.90;;;;;;5038943;28;20201;-76
2021/12/31 03:27:02;;;;;;;16.43;15.43;;;7.60;99.90;;;;;;5038654;28;20204;-75
2021/12/31 03:29:29;;;;;;;16.13;15.17;;;7.60;99.90;;;;;;5044550;28;20232;-75
2021/12/31 03:35:44;;;;;;;16.70;15.60;;;7.70;99.90;;;;;;5049303;28;20198;-75
2021/12/31 03:38:12;;;;;;;16.00;15.00;;;7.60;99.90;;;;;;5059585;28;20224;-75
2021/12/31 03:40:39;;;;;;;16.03;15.10;;;7.60;99.90;;;;;;5043796;28;20203;-75
2021/12/31 03:43:08;;;;;;;16.53;15.43;;;7.60;99.90;;;;;;5059897;28;20222;-75
2021/12/31 03:45:35;;;;;;;15.77;14.80;;;7.60;99.90;;;;;;5056153;28;20663;-75
2021/12/31 03:48:02;;;;;;;8.10;7.40;;;7.70;99.90;;;;;;5038615;28;20737;-75
2021/12/31 03:50:29;;;;;;;16.23;15.23;;;7.70;99.90;;;;;;5041026;28;20196;-75
2021/12/31 03:52:55;;;;;;;8.77;8.10;;;7.70;99.90;;;;;;5038793;28;20218;-76
2021/12/31 03:55:22;;;;;;;6.23;5.73;;;7.60;99.90;;;;;;5041067;28;20200;-75
2021/12/31 03:57:49;;;;;;;9.03;8.43;;;7.50;99.90;;;;;;5048992;28;20663;-75
2021/12/31 04:00:21;;;;;;;10.00;9.20;;;7.60;99.90;;;;;;5047153;28;20208;-75
2021/12/31 04:02:48;;;;;;;9.87;9.20;;;7.50;99.90;;;;;;5044746;28;20206;-75
2021/12/31 04:05:14;;;;;;;9.10;8.50;;;7.50;99.90;;;;;;5061061;28;20193;-75
2021/12/31 04:07:41;;;;;;;9.20;8.60;;;7.50;99.90;;;;;;5059489;28;20666;-75
2021/12/31 04:10:09;;;;;;;9.27;8.60;;;7.40;99.90;;;;;;5053181;28;20200;-75
2021/12/31 04:12:36;;;;;;;15.40;14.50;;;7.40;99.90;;;;;;5058517;28;20710;-75
2021/12/31 04:15:03;;;;;;;15.80;14.70;;;7.40;99.90;;;;;;5059529;28;20191;-75
2021/12/31 04:17:31;;;;;;;14.40;13.50;;;7.30;99.90;;;;;;5059193;28;20212;-75
2021/12/31 04:19:58;;;;;;;9.47;8.80;;;7.30;99.90;;;;;;5040703;28;20219;-76
2021/12/31 04:22:27;;;;;;;8.97;8.37;;;7.20;99.90;;;;;;5034310;28;20208;-76
2021/12/31 04:24:54;;;;;;;14.93;13.77;;;7.10;99.90;;;;;;5055574;28;20563;-75
2021/12/31 04:27:23;;;;;;;9.33;8.63;;;7.00;99.90;;;;;;5055175;28;20661;-76
2021/12/31 04:29:52;;;;;;;14.80;13.90;;;6.90;99.90;;;;;;5064241;28;20277;-75
2021/12/31 04:32:20;;;;;;;15.60;14.60;;;6.80;99.90;;;;;;5058881;28;20767;-75
2021/12/31 04:34:49;;;;;;;15.10;14.20;;;6.70;99.90;;;;;;5044400;28;20188;-76
2021/12/31 04:37:16;;;;;;;14.70;13.90;;;6.80;99.90;;;;;;5058418;28;20751;-77
2021/12/31 04:39:43;;;;;;;14.87;13.93;;;6.70;99.90;;;;;;5044722;28;20226;-76
2021/12/31 04:42:10;;;;;;;15.10;14.17;;;6.70;99.90;;;;;;5063186;28;20282;-75
2021/12/31 04:44:37;;;;;;;15.20;14.30;;;6.60;99.90;;;;;;5042028;28;20207;-78
2021/12/31 04:47:04;;;;;;;15.60;14.60;;;6.50;99.90;;;;;;5040462;28;20218;-78
2021/12/31 04:49:31;;;;;;;14.67;13.87;;;6.50;99.90;;;;;;5054753;28;20271;-76
2021/12/31 04:51:59;;;;;;;14.60;13.70;;;6.40;99.90;;;;;;5053543;28;20207;-76
2021/12/31 04:54:26;;;;;;;14.50;13.70;;;6.40;99.90;;;;;;5052521;28;20195;-75
2021/12/31 04:56:54;;;;;;;14.03;13.23;;;6.40;99.90;;;;;;5049411;28;20204;-76
2021/12/31 04:59:24;;;;;;;14.40;13.60;;;6.30;99.90;;;;;;5063931;28;20310;-76
2021/12/31 05:01:51;;;;;;;15.33;14.33;;;6.30;99.90;;;;;;5039530;28;20480;-76
2021/12/31 05:04:18;;;;;;;15.20;14.30;;;6.30;99.90;;;;;;5062579;28;20561;-76
2021/12/31 05:06:47;;;;;;;15.10;14.20;;;6.30;99.90;;;;;;5056782;28;20574;-76
2021/12/31 05:09:15;;;;;;;14.97;14.17;;;6.30;99.90;;;;;;5036622;28;20314;-76
2021/12/31 05:11:42;;;;;;;15.93;14.93;;;6.30;99.90;;;;;;5035725;28;20218;-76
2021/12/31 05:14:10;;;;;;;15.67;14.67;;;6.30;99.90;;;;;;5059448;28;20196;-76
2021/12/31 05:16:37;;;;;;;15.97;15.07;;;6.30;99.90;;;;;;5041218;28;20203;-76
2021/12/31 05:19:04;;;;;;;15.97;15.07;;;6.40;99.90;;;;;;5058302;28;20222;-76
2021/12/31 05:21:31;;;;;;;15.67;14.77;;;6.30;99.90;;;;;;5042345;28;20199;-76
2021/12/31 05:23:59;;;;;;;16.00;14.90;;;6.30;99.90;;;;;;5058346;28;20196;-74
2021/12/31 05:26:27;;;;;;;15.80;14.80;;;6.40;99.90;;;;;;5060531;28;20203;-76
2021/12/31 05:28:54;;;;;;;16.07;15.07;;;6.40;99.90;;;;;;5058058;28;20219;-75
2021/12/31 05:31:20;;;;;;;16.03;15.10;;;6.40;99.90;;;;;;5040121;28;20211;-76
2021/12/31 05:33:47;;;;;;;16.53;15.53;;;6.50;99.90;;;;;;5058246;28;20202;-76
2021/12/31 05:36:14;;;;;;;17.07;16.07;;;6.50;99.90;;;;;;5038082;28;20207;-76
2021/12/31 05:38:41;;;;;;;16.23;15.23;;;6.50;99.90;;;;;;5052086;28;20223;-76
2021/12/31 05:41:08;;;;;;;16.47;15.47;;;6.50;99.90;;;;;;5045556;28;20200;-76
2021/12/31 05:43:37;;;;;;;16.23;15.23;;;6.60;99.90;;;;;;5065520;28;20584;-76
2021/12/31 05:46:03;;;;;;;16.50;15.50;;;6.60;99.90;;;;;;5056810;28;20270;-76
2021/12/31 05:48:31;;;;;;;17.10;16.00;;;6.60;99.90;;;;;;5048767;28;20219;-76
2021/12/31 05:50:58;;;;;;;16.83;15.83;;;6.60;99.90;;;;;;5035696;28;20582;-76
2021/12/31 05:53:27;;;;;;;16.33;15.43;;;6.70;99.90;;;;;;5038330;28;20203;-76
2021/12/31 05:55:54;;;;;;;16.53;15.53;;;6.70;99.90;;;;;;5066718;28;20211;-78
2021/12/31 05:58:21;;;;;;;17.00;15.90;;;6.70;99.90;;;;;;5061013;28;20218;-76
2021/12/31 06:00:49;;;;;;;17.30;16.10;;;6.60;99.90;;;;;;5040137;28;20188;-78
2021/12/31 06:03:16;;;;;;;17.27;15.97;;;6.60;99.90;;;;;;5037518;28;20203;-78
2021/12/31 06:05:43;;;;;;;16.77;15.67;;;6.50;99.90;;;;;;5059140;28;20191;-76
2021/12/31 06:08:10;;;;;;;17.30;16.00;;;6.50;99.90;;;;;;5063781;28;20218;-79
2021/12/31 06:10:41;;;;;;;16.70;15.47;;;6.40;99.90;;;;;;5046364;28;20312;-77
2021/12/31 06:13:08;;;;;;;16.77;15.70;;;6.30;99.90;;;;;;5050171;28;20268;-77
2021/12/31 06:15:35;;;;;;;16.70;15.50;;;6.20;99.90;;;;;;5034550;28;20207;-78
2021/12/31 06:18:04;;;;;;;15.90;15.00;;;6.20;99.90;;;;;;5053020;28;20261;-78
2021/12/31 06:20:31;;;;;;;15.80;14.90;;;6.20;99.90;;;;;;5032399;28;20639;-78
2021/12/31 06:22:58;;;;;;;16.20;15.20;;;6.30;99.90;;;;;;5044573;28;20207;-78
2021/12/31 06:25:28;;;;;;;15.83;14.93;;;6.40;99.90;;;;;;5035164;28;20208;-78
2021/12/31 06:27:55;;;;;;;16.50;15.50;;;6.50;99.90;;;;;;5034628;28;20294;-77
2021/12/31 06:30:22;;;;;;;16.50;15.60;;;6.60;99.90;;;;;;5046983;28;20207;-77
2021/12/31 06:32:49;;;;;;;16.13;15.23;;;6.60;99.90;;;;;;5043117;28;20223;-77
2021/12/31 06:35:17;;;;;;;16.00;15.10;;;6.60;99.90;;;;;;5043952;28;20289;-78
2021/12/31 06:37:44;;;;;;;15.80;14.90;;;6.60;99.90;;;;;;5041602;28;20200;-75
2021/12/31 06:40:12;;;;;;;15.40;14.60;;;6.60;99.90;;;;;;5056011;28;20278;-77
2021/12/31 06:42:39;;;;;;;16.10;15.10;;;6.50;99.90;;;;;;5042862;28;20195;-76
2021/12/31 06:45:06;;;;;;;15.70;14.90;;;6.40;99.90;;;;;;5057972;28;20207;-78
2021/12/31 06:47:34;;;;;;;16.40;15.50;;;6.40;99.90;;;;;;5036100;28;20195;-77
2021/12/31 06:50:01;;;;;;;16.13;15.23;;;6.30;99.90;;;;;;5038744;28;20219;-76
2021/12/31 06:52:29;;;;;;;16.80;15.80;;;6.30;99.90;;;;;;5036019;28;20313;-77
2021/12/31 06:54:56;;;;;;;16.73;15.70;;;6.20;99.90;;;;;;5037848;28;20200;-76
2021/12/31 06:57:24;;;;;;;16.70;15.70;;;6.20;99.90;;;;;;5038747;28;20215;-76
2021/12/31 06:59:51;;;;;;;17.43;16.23;;;6.20;99.90;;;;;;5055483;28;20226;-76
2021/12/31 07:02:18;;;;;;;17.00;16.00;;;6.20;99.90;;;;;;5053008;28;20201;-77
2021/12/31 07:04:45;;;;;;;16.87;15.80;;;6.10;99.90;;;;;;5032013;28;20215;-78
2021/12/31 07:07:11;;;;;;;17.30;16.13;;;6.00;99.90;;;;;;5029673;28;20222;-76
2021/12/31 07:09:40;;;;;;;17.60;16.40;;;6.00;99.90;;;;;;5037337;28;20227;-77
2021/12/31 07:12:07;;;;;;;18.43;17.23;;;5.90;99.90;;;;;;5032680;28;20231;-77
2021/12/31 07:14:34;;;;;;;18.20;16.97;;;5.90;99.90;;;;;;5031251;28;20210;-77
2021/12/31 07:17:01;;;;;;;18.87;17.67;;;5.90;99.90;;;;;;5030219;28;20575;-77
2021/12/31 07:19:28;;;;;;;18.77;17.57;;;5.90;99.90;;;;;;5052503;28;20219;-77
2021/12/31 07:21:55;;;;;;;18.97;17.67;;;6.00;99.90;;;;;;5052014;28;20202;-77
2021/12/31 07:24:22;;;;;;;18.67;17.43;;;6.00;99.90;;;;;;5060011;28;20202;-77
2021/12/31 07:26:50;;;;;;;18.40;17.20;;;6.00;99.90;;;;;;5033900;28;20203;-77
2021/12/31 07:29:17;;;;;;;18.73;17.53;;;6.00;99.90;;;;;;5065085;28;20237;-77
2021/12/31 07:31:44;;;;;;;18.40;17.20;;;6.00;99.90;;;;;;5048084;28;20210;-77
2021/12/31 07:34:11;;;;;;;18.47;17.27;;;6.00;99.90;;;;;;5062282;28;20198;-77
2021/12/31 07:36:38;;;;;;;18.30;17.10;;;6.00;99.90;;;;;;5061728;28;20426;-77
2021/12/31 07:39:07;;;;;;;18.53;17.33;;;6.00;99.90;;;;;;5052115;28;20215;-76
2021/12/31 07:41:34;;;;;;;17.93;16.83;;;6.00;99.90;;;;;;5046106;28;20195;-77
2021/12/31 07:44:03;;;;;;;18.27;17.13;;;6.00;99.90;;;;;;5041185;28;20196;-76
2021/12/31 07:46:30;;;;;;;18.80;17.60;;;6.00;99.90;;;;;;5042262;28;20203;-77
2021/12/31 07:48:57;;;;;;;18.43;17.33;;;6.00;99.90;;;;;;5051591;28;20215;-77
2021/12/31 07:51:24;;;;;;;18.37;17.27;;;6.00;99.90;;;;;;5059797;28;20206;-77
2021/12/31 07:53:51;;;;;;;18.50;17.10;;;6.10;99.90;;;;;;5042685;28;20223;-77
2021/12/31 07:56:19;;;;;;;18.03;16.93;;;6.00;99.90;;;;;;5059544;28;20676;-77
2021/12/31 07:58:46;;;;;;;18.27;17.17;;;6.00;99.90;;;;;;5040398;28;20208;-78
2021/12/31 08:01:16;;;;;;;18.40;17.20;;;6.10;99.90;;;;;;5057354;28;20233;-76
2021/12/31 08:03:43;;;;;;;18.50;17.20;;;6.00;99.90;;;;;;5050086;28;20188;-75
2021/12/31 08:06:11;;;;;;;18.00;16.80;;;6.00;99.90;;;;;;5038544;28;20211;-75
2021/12/31 08:08:37;;;;;;;17.83;16.67;;;6.20;99.90;;;;;;5038429;28;20222;-77
2021/12/31 08:11:04;;;;;;;17.37;16.27;;;6.40;99.90;;;;;;5040708;28;20214;-77
2021/12/31 08:13:31;;;;;;;17.17;16.07;;;6.60;99.90;;;;;;5043961;28;20241;-78
2021/12/31 08:15:58;;;;;;;7.10;6.03;;;7.00;99.90;;;;;;5067143;28;20192;-76
2021/12/31 08:18:26;;;;;;;7.07;6.27;;;7.30;99.90;;;;;;5063344;28;20218;-75
2021/12/31 08:20:53;;;;;;;10.30;9.53;;;7.70;99.90;;;;;;5057370;28;20285;-79
2021/12/31 08:23:20;;;;;;;13.00;12.10;;;8.10;99.90;;;;;;5031571;28;20212;-78
2021/12/31 08:25:47;;;;;;;11.93;11.13;;;8.30;99.90;;;;;;5036031;28;20255;-77
2021/12/31 08:28:14;;;;;;;11.73;10.93;;;8.40;99.90;;;;;;5054061;28;20225;-77
2021/12/31 08:30:41;;;;;;;10.77;10.07;;;8.60;99.90;;;;;;5063963;28;20191;-77
2021/12/31 08:33:08;;;;;;;11.10;10.40;;;8.60;99.90;;;;;;5062229;28;20596;-77
2021/12/31 08:35:36;;;;;;;12.40;11.53;;;8.80;99.90;;;;;;5061049;28;20374;-77
2021/12/31 08:38:04;;;;;;;12.33;11.53;;;8.90;99.90;;;;;;5061572;28;20211;-77
2021/12/31 08:40:31;;;;;;;11.50;10.70;;;9.10;99.90;;;;;;5062045;28;20195;-76
2021/12/31 08:42:58;;;;;;;11.90;11.10;;;9.20;99.90;;;;;;5055101;28;20225;-77
2021/12/31 08:45:29;;;;;;;11.10;10.30;;;9.20;99.90;;;;;;5064249;28;20198;-77
2021/12/31 08:47:57;;;;;;;10.57;9.87;;;9.30;99.90;;;;;;5025475;28;20670;-77
2021/12/31 08:50:24;;;;;;;10.70;10.00;;;9.60;99.90;;;;;;5064573;28;20195;-76
2021/12/31 08:52:53;;;;;;;14.00;13.10;;;9.80;99.90;;;;;;5057501;28;20207;-76
2021/12/31 08:55:19;;;;;;;14.73;13.80;;;9.90;99.90;;;;;;5056768;28;20203;-77
2021/12/31 08:57:46;;;;;;;14.53;13.63;;;10.00;99.90;;;;;;5063785;28;20666;-77
2021/12/31 09:00:14;;;;;;;13.80;13.00;;;10.00;99.90;;;;;;5060802;28;20628;-77
2021/12/31 09:02:42;;;;;;;13.60;12.80;;;10.00;99.90;;;;;;5066477;28;20190;-76
2021/12/31 09:05:09;;;;;;;13.97;13.07;;;10.00;99.90;;;;;;5056517;28;20230;-78
2021/12/31 09:07:36;;;;;;;14.00;13.10;;;10.10;99.90;;;;;;5056926;28;20198;-77
2021/12/31 09:10:07;;;;;;;14.17;13.27;;;10.20;99.90;;;;;;5060165;28;20210;-77
2021/12/31 09:12:34;;;;;;;14.40;13.60;;;10.20;99.90;;;;;;5057823;28;20203;-77
2021/12/31 09:15:01;;;;;;;14.13;13.33;;;10.10;99.90;;;;;;5037533;28;20191;-77
2021/12/31 09:17:28;;;;;;;15.00;14.10;;;10.10;99.90;;;;;;5039765;28;20206;-76
2021/12/31 09:19:55;;;;;;;14.73;13.83;;;10.00;99.90;;;;;;5058565;28;20211;-77
2021/12/31 09:22:22;;;;;;;14.07;13.23;;;10.00;99.90;;;;;;5049575;28;20600;-77
2021/12/31 09:24:49;;;;;;;14.10;13.20;;;9.80;99.90;;;;;;5057478;28;20203;-77
2021/12/31 09:27:18;;;;;;;14.03;13.13;;;9.80;99.90;;;;;;5040364;28;20204;-76
2021/12/31 09:29:45;;;;;;;14.27;13.43;;;9.80;99.90;;;;;;5051431;28;20229;-77
2021/12/31 09:32:12;;;;;;;14.00;13.20;;;9.80;99.90;;;;;;5062884;28;20209;-77
2021/12/31 09:34:42;;;;;;;14.20;13.30;;;9.80;99.90;;;;;;5040724;28;20207;-77
2021/12/31 09:37:10;;;;;;;13.60;12.80;;;9.80;99.90;;;;;;5055698;28;20249;-77
2021/12/31 09:39:38;;;;;;;13.60;12.90;;;9.70;99.90;;;;;;5058918;28;20726;-77
2021/12/31 09:42:05;;;;;;;13.60;12.80;;;9.70;99.90;;;;;;5062447;28;20222;-76
2021/12/31 09:44:35;;;;;;;13.60;12.80;;;9.80;99.90;;;;;;5065802;28;20191;-76
2021/12/31 09:47:07;;;;;;;14.10;13.10;;;9.80;99.90;;;;;;5061929;28;20198;-77
2021/12/31 09:49:35;;;;;;;13.93;13.13;;;9.80;99.90;;;;;;5040278;28;20210;-75
2021/12/31 09:52:03;;;;;;;3.77;3.47;;;9.80;99.90;;;;;;5064271;28;20248;-78
2021/12/31 09:54:30;;;;;;;4.07;3.77;;;9.80;99.90;;;;;;5036676;28;20757;-78
2021/12/31 09:56:57;;;;;;;9.80;9.20;;;9.90;99.90;;;;;;5042120;28;20673;-79
2021/12/31 09:59:27;;;;;;;11.13;10.27;;;9.90;99.90;;;;;;5051093;28;20219;-75
2021/12/31 10:01:56;;;;;;;8.70;8.17;;;9.90;99.90;;;;;;5061179;28;20191;-79
2021/12/31 10:04:23;;;;;;;9.47;8.87;;;10.00;99.90;;;;;;5055246;28;20277;-79
2021/12/31 10:07:09;;;;;;;11.30;10.60;;;10.10;99.90;;;;;;5046267;28;20199;-79
2021/12/31 10:09:39;;;;;;;12.33;11.63;;;10.20;99.90;;;;;;5054604;28;20207;-77
2021/12/31 10:12:07;;;;;;;8.53;7.93;;;10.20;99.90;;;;;;5049567;28;20199;-79
2021/12/31 10:14:36;;;;;;;5.10;4.70;;;10.30;99.90;;;;;;5057816;28;20668;-78
2021/12/31 10:17:05;;;;;;;7.70;7.00;;;10.40;99.90;;;;;;5048760;28;20213;-79
2021/12/31 10:19:32;;;;;;;7.67;7.03;;;10.40;99.90;;;;;;5057845;28;20210;-77
2021/12/31 10:22:00;;;;;;;7.93;7.27;;;10.40;99.90;;;;;;5044087;28;20199;-77
2021/12/31 10:24:35;;;;;;;6.20;4.93;;;10.50;99.90;;;;;;5039187;28;20196;-78
2021/12/31 10:27:16;;;;;;;8.97;8.27;;;10.50;99.90;;;;;;5061564;28;20187;-78
2021/12/31 10:29:52;;;;;;;11.17;10.40;;;10.50;99.90;;;;;;5056245;28;20227;-78
2021/12/31 10:32:20;;;;;;;13.30;12.37;;;10.60;99.90;;;;;;5063008;28;20205;-78
2021/12/31 10:34:47;;;;;;;9.50;8.80;;;10.60;99.90;;;;;;5059347;28;20655;-81
2021/12/31 10:37:16;;;;;;;6.30;5.80;;;10.60;99.90;;;;;;5062395;28;20202;-81
2021/12/31 10:39:44;;;;;;;7.53;6.93;;;10.70;99.90;;;;;;5045217;28;20228;-81
2021/12/31 10:42:13;;;;;;;5.17;4.70;;;10.70;99.90;;;;;;5063168;28;20209;-79
2021/12/31 10:44:48;;;;;;;4.40;4.00;;;10.70;99.90;;;;;;5051629;28;20191;-77
2021/12/31 10:47:28;;;;;;;5.67;5.27;;;10.80;99.90;;;;;;5034979;28;20586;-79
2021/12/31 10:50:13;;;;;;;5.90;5.30;;;10.80;99.90;;;;;;5038769;28;20215;-78
2021/12/31 10:52:47;;;;;;;5.53;5.13;;;10.90;99.90;;;;;;5034807;28;20203;-78
2021/12/31 10:55:22;;;;;;;7.60;7.07;;;10.90;99.90;;;;;;5050170;28;20194;-78
2021/12/31 10:57:50;;;;;;;6.27;5.83;;;10.90;99.90;;;;;;5053332;28;20183;-79
2021/12/31 11:00:19;;;;;;;9.17;8.53;;;11.00;99.90;;;;;;5049172;28;20649;-78
2021/12/31 11:02:48;;;;;;;9.23;8.63;;;11.10;99.90;;;;;;5040542;28;20290;-78
2021/12/31 11:05:16;;;;;;;6.80;6.30;;;11.10;99.90;;;;;;5043347;28;20206;-81
2021/12/31 11:07:44;;;;;;;6.30;5.70;;;11.10;99.90;;;;;;5041873;28;20671;-77
2021/12/31 11:10:11;;;;;;;5.30;4.90;;;11.10;99.90;;;;;;5058823;28;20202;-76
2021/12/31 11:12:42;;;;;;;6.13;5.53;;;11.10;99.90;;;;;;5054347;28;20199;-77
2021/12/31 11:15:10;;;;;;;4.73;4.33;;;11.20;99.90;;;;;;5041782;28;20726;-77
2021/12/31 11:17:38;;;;;;;6.70;4.77;;;11.20;99.90;;;;;;5064499;28;20195;-77
2021/12/31 11:20:08;;;;;;;12.53;11.70;;;11.20;99.90;;;;;;5035980;28;20215;-78
2021/12/31 11:22:35;;;;;;;6.90;6.40;;;11.30;99.90;;;;;;5069395;28;20198;-79
2021/12/31 11:25:25;;;;;;;15.00;14.10;;;11.30;99.90;;;;;;5064012;28;20202;-77
2021/12/31 11:27:53;;;;;;;13.80;13.00;;;11.40;99.90;;;;;;5053416;28;20195;-77
2021/12/31 11:30:37;;;;;;;14.67;13.77;;;11.40;99.90;;;;;;5038751;28;20226;-77
2021/12/31 11:33:09;;;;;;;13.70;12.90;;;11.40;99.90;;;;;;5042055;28;20223;-77
2021/12/31 11:35:44;;;;;;;14.20;13.33;;;11.50;99.90;;;;;;5039497;28;20233;-78
2021/12/31 11:38:15;;;;;;;17.33;16.43;;;11.50;99.90;;;;;;5054958;28;20223;-77
2021/12/31 11:40:49;;;;;;;15.23;14.33;;;11.50;99.90;;;;;;5058314;28;20191;-78
2021/12/31 11:43:26;;;;;;;15.27;14.40;;;11.50;99.90;;;;;;5039306;28;20651;-78
2021/12/31 11:46:32;;;;;;;16.00;15.10;;;11.50;99.90;;;;;;5059022;28;20542;-78
2021/12/31 11:49:00;;;;;;;14.90;14.10;;;11.50;99.90;;;;;;5035679;28;20644;-77
2021/12/31 11:51:34;;;;;;;15.13;14.23;;;11.60;99.90;;;;;;5042240;28;20200;-77
2021/12/31 11:54:20;;;;;;;15.20;14.20;;;11.60;99.90;;;;;;5054888;28;20212;-80
2021/12/31 11:57:02;;;;;;;17.00;15.90;;;11.70;99.90;;;;;;5045551;28;20424;-84
2021/12/31 11:59:49;;;;;;;14.07;13.27;;;11.80;99.90;;;;;;5047861;28;20565;-82
2021/12/31 12:02:22;;;;;;;14.60;13.80;;;11.90;99.90;;;;;;5032859;28;20212;-80
2021/12/31 12:05:14;;;;;;;13.97;13.10;;;11.90;99.90;;;;;;5044959;28;20610;-80
2021/12/31 12:07:46;;;;;;;15.53;14.43;;;12.00;99.90;;;;;;5031262;28;20337;-80
2021/12/31 12:10:28;;;;;;;21.27;14.10;;;12.10;99.90;;;;;;5034137;28;20227;-79
2021/12/31 12:13:11;;;;;;;15.03;13.67;;;12.30;99.90;;;;;;5038496;28;20297;-78
2021/12/31 12:15:41;;;;;;;14.30;13.33;;;12.40;99.90;;;;;;5019486;28;20569;-80
2021/12/31 12:18:08;;;;;;;14.30;13.40;;;12.40;99.90;;;;;;5048516;28;20219;-79
2021/12/31 12:20:45;;;;;;;13.57;12.77;;;12.50;99.90;;;;;;5034239;28;20202;-78
2021/12/31 12:23:18;;;;;;;14.27;13.47;;;12.60;99.90;;;;;;5052002;28;20201;-78
2021/12/31 12:25:45;;;;;;;13.23;12.50;;;12.60;99.90;;;;;;5060273;28;20615;-79
2021/12/31 12:28:13;;;;;;;13.67;12.87;;;12.60;99.90;;;;;;5054354;28;20229;-78
2021/12/31 12:30:46;;;;;;;13.40;12.60;;;12.70;99.90;;;;;;5049913;28;20205;-78
2021/12/31 12:33:17;;;;;;;13.50;12.70;;;12.80;99.90;;;;;;5063866;28;20204;-78
2021/12/31 12:35:46;;;;;;;13.03;12.33;;;12.80;99.90;;;;;;5045877;28;20194;-78
2021/12/31 12:38:19;;;;;;;13.27;12.47;;;12.90;99.90;;;;;;5060431;28;20225;-77
2021/12/31 12:40:49;;;;;;;13.17;12.37;;;13.00;99.90;;;;;;5050203;28;20190;-78
2021/12/31 12:43:17;;;;;;;13.30;12.50;;;13.00;99.90;;;;;;5050952;28;20198;-77
2021/12/31 12:45:46;;;;;;;13.43;12.63;;;13.00;99.90;;;;;;5052025;28;20191;-79
2021/12/31 12:48:13;;;;;;;13.27;12.57;;;13.00;99.90;;;;;;5032167;28;20783;-77
2021/12/31 12:50:48;;;;;;;13.00;12.30;;;13.10;99.90;;;;;;5048689;28;20245;-76